Acme, WA (98220)

11:49 PM PST on February 08, 2016 (GMT -0800)
Sudden Valley | | Change Station
CLOSE
Current Station
Personal Weather Station
Location: Bellingham, WA
Elevation: 663 ft
Nearby Weather Stations

Elev 663 ft 48.71 °N, 122.32 °W | Updated 18 seconds ago

Clear
Clear
44.6 °F
Feels Like 45 °F
N
0.0
Wind Variable Wind from East
Gusts 0.0 mph

Today
High -- | Low -- °F
--% Chance of Precip.
Yesterday
High -- | Low -- °F
Precip. -- in
Pressure 30.34 in
Visibility 4.0 miles
Clouds Clear
Windchill 45 °F
Dew Point 44 °F
Humidity 97%
Rainfall in
Snow Depth Not available.
7:28 AM 5:17 PM
New Moon, 1% visible
METAR KBLI 090653Z AUTO 00000KT 4SM BR CLR 03/02 A3031 RMK AO2 SLP273 T00280022
Pressure 30.34 in
Visibility 4.0 miles
Clouds Clear
Windchill 45 °F
Dew Point 44 °F
Humidity 97%
Rainfall in
Snow Depth Not available.
7:28 AM 5:17 PM
New Moon, 1% visible
METAR KBLI 090653Z AUTO 00000KT 4SM BR CLR 03/02 A3031 RMK AO2 SLP273 T00280022

10-Day Weather Forecast

Almanac

Astronomy

Feb. 08, 2016 Rise Set
Actual Time
Civil Twilight
Nautical Twilight
Astronomical Twilight
Moon
Length of Visible Light
Length of Day
Tomorrow will be .
, % of the Moon is Illuminated

Today's Extremes

State Highs State Lows

Community

WunderPhotos

Upload Photos

1,891,571 photos uploaded!

WunderBlog® & News

Nearby

Air Quality

  Air Quality AQ Index Pollutant
Not available.

Snow Depth

Station Depth Elevation

Earthquake Activity

City Distance Mag. Time & Date
Minimum magnitude displayed is 2.5.

Coastal Water Temperatures

Place Temperature

Stations

Nearby Weather Stations

Station Location Temp. Windchill Dew Point Humidity Wind Precip. Elev Updated Type
                   

Watches & Warnings

There are currently no watches in effect.